Mettet, Belgium
Current Conditions -  °F | °C
As of 2:55 PM on Thursday 30 Oct 2014 (Local Time) from EBFS Reporting Station
Broken Clouds Broken Clouds  
Wind Chill: 61°   Ceiling: 14000
Heat Index: 61°   Visibility: 6mi
Dew Point: 55°   Wind: 5mph
Humidity: 82%   Direction: 190°S
Pressure: 30.21"   Gusts: NA
Location:  50.32°N, 4.66°E
Report Text: EBFS 301355Z 19004KT 9999 BKN140 16/13 Q1023 BLU BLU
Loading
Personal Weather Stations






























Interactive Weather Map
Tropical Storm Tracking
New forecast layout! Learn more

10-Day Weather Forecast

Advertisements
Track Severe Weather on mobile